sensor_id;sensor_type;location;lat;lon;timestamp;pressure;altitude;pressure_sealevel;temperature;humidity
55289;BME280;41154;45.394;5.734;2023-03-03T00:01:13;97112.56;;;-1.05;100.00
55289;BME280;41154;45.394;5.734;2023-03-03T00:03:39;97100.81;;;-0.94;100.00
55289;BME280;41154;45.394;5.734;2023-03-03T00:06:08;97102.63;;;-0.95;100.00
55289;BME280;41154;45.394;5.734;2023-03-03T00:08:36;97093.91;;;-0.95;100.00
55289;BME280;41154;45.394;5.734;2023-03-03T00:11:03;97107.19;;;-1.12;100.00
55289;BME280;41154;45.394;5.734;2023-03-03T00:13:31;97106.53;;;-1.14;100.00
55289;BME280;41154;45.394;5.734;2023-03-03T00:16:14;97108.94;;;-1.04;100.00
55289;BME280;41154;45.394;5.734;2023-03-03T00:18:43;97096.59;;;-1.03;100.00
55289;BME280;41154;45.394;5.734;2023-03-03T00:21:27;97099.06;;;-1.02;100.00
55289;BME280;41154;45.394;5.734;2023-03-03T00:26:38;97098.13;;;-1.09;100.00
55289;BME280;41154;45.394;5.734;2023-03-03T00:29:34;97107.81;;;-1.10;100.00
55289;BME280;41154;45.394;5.734;2023-03-03T00:32:17;97103.84;;;-1.05;100.00
55289;BME280;41154;45.394;5.734;2023-03-03T00:34:45;97112.44;;;-1.12;100.00
55289;BME280;41154;45.394;5.734;2023-03-03T00:42:45;97113.44;;;-1.13;100.00
55289;BME280;41154;45.394;5.734;2023-03-03T00:47:58;97118.28;;;-1.24;100.00
55289;BME280;41154;45.394;5.734;2023-03-03T00:50:33;97113.00;;;-1.24;100.00
55289;BME280;41154;45.394;5.734;2023-03-03T00:53:05;97106.88;;;-1.17;100.00
55289;BME280;41154;45.394;5.734;2023-03-03T00:55:33;97103.91;;;-1.14;100.00
55289;BME280;41154;45.394;5.734;2023-03-03T00:58:05;97109.34;;;-1.15;100.00
55289;BME280;41154;45.394;5.734;2023-03-03T01:00:36;97104.53;;;-1.43;100.00
55289;BME280;41154;45.394;5.734;2023-03-03T01:03:06;97102.84;;;-1.36;100.00
55289;BME280;41154;45.394;5.734;2023-03-03T01:05:34;97113.72;;;-1.39;100.00
55289;BME280;41154;45.394;5.734;2023-03-03T01:08:00;97107.13;;;-1.35;100.00
55289;BME280;41154;45.394;5.734;2023-03-03T01:10:29;97103.81;;;-1.29;100.00
55289;BME280;41154;45.394;5.734;2023-03-03T01:12:56;97099.34;;;-1.28;100.00
55289;BME280;41154;45.394;5.734;2023-03-03T01:15:23;97107.69;;;-1.16;100.00
55289;BME280;41154;45.394;5.734;2023-03-03T01:17:50;97104.72;;;-1.45;100.00
55289;BME280;41154;45.394;5.734;2023-03-03T01:20:16;97107.06;;;-1.58;100.00
55289;BME280;41154;45.394;5.734;2023-03-03T01:22:42;97105.88;;;-1.47;100.00
55289;BME280;41154;45.394;5.734;2023-03-03T01:25:09;97110.91;;;-1.37;100.00
55289;BME280;41154;45.394;5.734;2023-03-03T01:27:36;97108.94;;;-1.35;100.00
55289;BME280;41154;45.394;5.734;2023-03-03T01:30:06;97111.81;;;-1.53;100.00
55289;BME280;41154;45.394;5.734;2023-03-03T01:32:33;97107.69;;;-1.56;100.00
55289;BME280;41154;45.394;5.734;2023-03-03T01:34:59;97111.34;;;-1.57;100.00
55289;BME280;41154;45.394;5.734;2023-03-03T01:37:24;97114.00;;;-1.65;100.00
55289;BME280;41154;45.394;5.734;2023-03-03T01:39:53;97107.78;;;-1.72;100.00
55289;BME280;41154;45.394;5.734;2023-03-03T01:42:20;97107.47;;;-1.86;100.00
55289;BME280;41154;45.394;5.734;2023-03-03T01:44:47;97107.97;;;-1.82;100.00
55289;BME280;41154;45.394;5.734;2023-03-03T01:47:20;97104.78;;;-1.61;100.00
55289;BME280;41154;45.394;5.734;2023-03-03T01:49:59;97113.84;;;-1.72;100.00
55289;BME280;41154;45.394;5.734;2023-03-03T01:52:43;97116.03;;;-1.84;100.00
55289;BME280;41154;45.394;5.734;2023-03-03T01:55:19;97107.81;;;-1.89;100.00
55289;BME280;41154;45.394;5.734;2023-03-03T01:57:55;97112.69;;;-1.69;100.00
55289;BME280;41154;45.394;5.734;2023-03-03T02:00:25;97115.97;;;-1.67;100.00
55289;BME280;41154;45.394;5.734;2023-03-03T02:02:51;97115.66;;;-1.72;100.00
55289;BME280;41154;45.394;5.734;2023-03-03T02:05:19;97117.31;;;-1.71;100.00
55289;BME280;41154;45.394;5.734;2023-03-03T02:07:45;97113.97;;;-1.57;100.00
55289;BME280;41154;45.394;5.734;2023-03-03T02:10:14;97107.88;;;-1.57;100.00
55289;BME280;41154;45.394;5.734;2023-03-03T02:12:55;97110.09;;;-1.86;100.00
55289;BME280;41154;45.394;5.734;2023-03-03T02:17:59;97108.91;;;-1.67;100.00
55289;BME280;41154;45.394;5.734;2023-03-03T02:20:31;97111.72;;;-1.76;100.00
55289;BME280;41154;45.394;5.734;2023-03-03T02:23:21;97112.84;;;-1.63;100.00
55289;BME280;41154;45.394;5.734;2023-03-03T02:28:21;97111.09;;;-1.39;100.00
55289;BME280;41154;45.394;5.734;2023-03-03T02:30:48;97112.34;;;-1.27;100.00
55289;BME280;41154;45.394;5.734;2023-03-03T02:33:15;97118.91;;;-1.22;100.00
55289;BME280;41154;45.394;5.734;2023-03-03T02:35:46;97114.16;;;-1.27;100.00
55289;BME280;41154;45.394;5.734;2023-03-03T02:38:26;97111.06;;;-1.31;100.00
55289;BME280;41154;45.394;5.734;2023-03-03T02:44:22;97115.66;;;-1.24;100.00
55289;BME280;41154;45.394;5.734;2023-03-03T02:46:50;97105.53;;;-1.13;100.00
55289;BME280;41154;45.394;5.734;2023-03-03T02:49:31;97116.06;;;-1.13;100.00
55289;BME280;41154;45.394;5.734;2023-03-03T02:51:58;97112.38;;;-1.03;100.00
55289;BME280;41154;45.394;5.734;2023-03-03T02:54:26;97102.66;;;-1.03;100.00
55289;BME280;41154;45.394;5.734;2023-03-03T02:56:54;97104.31;;;-1.02;100.00
55289;BME280;41154;45.394;5.734;2023-03-03T02:59:20;97104.16;;;-1.00;100.00
55289;BME280;41154;45.394;5.734;2023-03-03T03:01:48;97108.78;;;-1.02;100.00
55289;BME280;41154;45.394;5.734;2023-03-03T03:04:19;97101.97;;;-0.97;100.00
55289;BME280;41154;45.394;5.734;2023-03-03T03:06:48;97101.75;;;-0.87;100.00
55289;BME280;41154;45.394;5.734;2023-03-03T03:09:16;97107.16;;;-0.80;100.00
55289;BME280;41154;45.394;5.734;2023-03-03T03:11:43;97104.78;;;-0.75;100.00
55289;BME280;41154;45.394;5.734;2023-03-03T03:14:12;97104.22;;;-0.62;100.00
55289;BME280;41154;45.394;5.734;2023-03-03T03:16:39;97108.31;;;-0.60;100.00
55289;BME280;41154;45.394;5.734;2023-03-03T03:19:05;97109.16;;;-0.82;100.00
55289;BME280;41154;45.394;5.734;2023-03-03T03:21:33;97110.09;;;-1.06;100.00
55289;BME280;41154;45.394;5.734;2023-03-03T03:23:59;97109.69;;;-1.18;100.00
55289;BME280;41154;45.394;5.734;2023-03-03T03:26:26;97118.69;;;-1.13;100.00
55289;BME280;41154;45.394;5.734;2023-03-03T03:28:52;97114.03;;;-1.02;100.00
55289;BME280;41154;45.394;5.734;2023-03-03T03:31:21;97111.59;;;-0.81;100.00
55289;BME280;41154;45.394;5.734;2023-03-03T03:33:47;97121.28;;;-0.81;100.00
55289;BME280;41154;45.394;5.734;2023-03-03T03:36:15;97111.53;;;-0.96;100.00
55289;BME280;41154;45.394;5.734;2023-03-03T03:38:41;97123.00;;;-0.88;100.00
55289;BME280;41154;45.394;5.734;2023-03-03T03:41:10;97119.69;;;-0.82;100.00
55289;BME280;41154;45.394;5.734;2023-03-03T03:43:36;97117.78;;;-0.97;100.00
55289;BME280;41154;45.394;5.734;2023-03-03T03:46:02;97120.31;;;-0.80;100.00
55289;BME280;41154;45.394;5.734;2023-03-03T03:48:29;97117.03;;;-0.82;100.00
55289;BME280;41154;45.394;5.734;2023-03-03T03:50:56;97126.81;;;-0.91;100.00
55289;BME280;41154;45.394;5.734;2023-03-03T03:53:24;97120.19;;;-0.87;100.00
55289;BME280;41154;45.394;5.734;2023-03-03T03:55:50;97115.75;;;-0.63;100.00
55289;BME280;41154;45.394;5.734;2023-03-03T03:58:17;97117.75;;;-0.65;100.00
55289;BME280;41154;45.394;5.734;2023-03-03T04:03:20;97118.38;;;-0.86;100.00
55289;BME280;41154;45.394;5.734;2023-03-03T04:05:47;97125.13;;;-0.84;100.00
55289;BME280;41154;45.394;5.734;2023-03-03T04:08:15;97127.09;;;-0.86;100.00
55289;BME280;41154;45.394;5.734;2023-03-03T04:10:44;97129.72;;;-0.86;100.00
55289;BME280;41154;45.394;5.734;2023-03-03T04:13:10;97126.91;;;-0.84;100.00
55289;BME280;41154;45.394;5.734;2023-03-03T04:15:36;97129.44;;;-0.91;100.00
55289;BME280;41154;45.394;5.734;2023-03-03T04:18:02;97123.06;;;-0.74;100.00
55289;BME280;41154;45.394;5.734;2023-03-03T04:20:29;97122.31;;;-0.59;100.00
55289;BME280;41154;45.394;5.734;2023-03-03T04:22:55;97133.13;;;-0.54;100.00
55289;BME280;41154;45.394;5.734;2023-03-03T04:25:24;97126.81;;;-0.45;100.00
55289;BME280;41154;45.394;5.734;2023-03-03T04:27:51;97124.69;;;-0.26;100.00
55289;BME280;41154;45.394;5.734;2023-03-03T04:30:19;97128.59;;;-0.22;100.00
55289;BME280;41154;45.394;5.734;2023-03-03T04:32:49;97127.69;;;-0.29;100.00
55289;BME280;41154;45.394;5.734;2023-03-03T04:35:19;97118.47;;;-0.33;100.00
55289;BME280;41154;45.394;5.734;2023-03-03T04:37:44;97112.13;;;-0.24;100.00
55289;BME280;41154;45.394;5.734;2023-03-03T04:40:14;97121.03;;;-0.25;100.00
55289;BME280;41154;45.394;5.734;2023-03-03T04:42:41;97126.66;;;-0.28;100.00
55289;BME280;41154;45.394;5.734;2023-03-03T04:45:09;97116.97;;;-0.28;100.00
55289;BME280;41154;45.394;5.734;2023-03-03T04:47:36;97118.38;;;-0.40;100.00
55289;BME280;41154;45.394;5.734;2023-03-03T04:50:03;97126.91;;;-0.38;100.00
55289;BME280;41154;45.394;5.734;2023-03-03T04:52:31;97114.91;;;0.12;100.00
55289;BME280;41154;45.394;5.734;2023-03-03T04:54:57;97117.13;;;0.24;100.00
55289;BME280;41154;45.394;5.734;2023-03-03T04:57:24;97111.53;;;-0.11;100.00
55289;BME280;41154;45.394;5.734;2023-03-03T04:59:51;97116.78;;;-0.26;100.00
55289;BME280;41154;45.394;5.734;2023-03-03T05:02:17;97117.78;;;-0.27;100.00
55289;BME280;41154;45.394;5.734;2023-03-03T05:04:43;97110.13;;;-0.22;100.00
55289;BME280;41154;45.394;5.734;2023-03-03T05:07:09;97118.19;;;-0.01;100.00
55289;BME280;41154;45.394;5.734;2023-03-03T05:09:35;97115.38;;;0.16;100.00
55289;BME280;41154;45.394;5.734;2023-03-03T05:12:02;97113.19;;;0.20;100.00
55289;BME280;41154;45.394;5.734;2023-03-03T05:14:28;97111.63;;;0.10;100.00
55289;BME280;41154;45.394;5.734;2023-03-03T05:16:54;97114.19;;;0.04;100.00
55289;BME280;41154;45.394;5.734;2023-03-03T05:19:19;97112.75;;;0.16;100.00
55289;BME280;41154;45.394;5.734;2023-03-03T05:21:45;97114.63;;;-0.08;100.00
55289;BME280;41154;45.394;5.734;2023-03-03T05:24:12;97110.00;;;-0.06;100.00
55289;BME280;41154;45.394;5.734;2023-03-03T05:26:38;97100.97;;;-0.11;100.00
55289;BME280;41154;45.394;5.734;2023-03-03T05:29:05;97100.16;;;-0.12;100.00
55289;BME280;41154;45.394;5.734;2023-03-03T05:31:31;97109.25;;;-0.14;100.00
55289;BME280;41154;45.394;5.734;2023-03-03T05:33:58;97118.56;;;-0.42;100.00
55289;BME280;41154;45.394;5.734;2023-03-03T05:36:24;97116.38;;;-0.61;100.00
55289;BME280;41154;45.394;5.734;2023-03-03T05:38:50;97122.50;;;-0.61;100.00
55289;BME280;41154;45.394;5.734;2023-03-03T05:41:16;97120.59;;;-0.52;100.00
55289;BME280;41154;45.394;5.734;2023-03-03T05:43:42;97124.91;;;-0.36;100.00
55289;BME280;41154;45.394;5.734;2023-03-03T05:46:07;97123.53;;;-0.09;100.00
55289;BME280;41154;45.394;5.734;2023-03-03T05:48:33;97130.59;;;-0.24;100.00
55289;BME280;41154;45.394;5.734;2023-03-03T05:50:59;97125.03;;;-0.29;100.00
55289;BME280;41154;45.394;5.734;2023-03-03T05:53:26;97128.66;;;-0.30;100.00
55289;BME280;41154;45.394;5.734;2023-03-03T05:55:52;97122.09;;;-0.34;100.00
55289;BME280;41154;45.394;5.734;2023-03-03T05:58:18;97120.22;;;-0.26;100.00
55289;BME280;41154;45.394;5.734;2023-03-03T06:00:46;97126.13;;;-0.24;100.00
55289;BME280;41154;45.394;5.734;2023-03-03T06:03:12;97118.81;;;-0.13;100.00
55289;BME280;41154;45.394;5.734;2023-03-03T06:05:37;97120.31;;;-0.19;100.00
55289;BME280;41154;45.394;5.734;2023-03-03T06:08:03;97116.88;;;-0.20;100.00
55289;BME280;41154;45.394;5.734;2023-03-03T06:10:30;97122.31;;;-0.21;100.00
55289;BME280;41154;45.394;5.734;2023-03-03T06:12:59;97122.75;;;-0.32;100.00
55289;BME280;41154;45.394;5.734;2023-03-03T06:15:25;97123.16;;;-0.44;100.00
55289;BME280;41154;45.394;5.734;2023-03-03T06:17:51;97125.56;;;-0.34;100.00
55289;BME280;41154;45.394;5.734;2023-03-03T06:20:17;97124.25;;;-0.15;100.00
55289;BME280;41154;45.394;5.734;2023-03-03T06:22:42;97123.09;;;-0.12;100.00
55289;BME280;41154;45.394;5.734;2023-03-03T06:25:08;97134.00;;;-0.15;100.00
55289;BME280;41154;45.394;5.734;2023-03-03T06:27:35;97133.16;;;-0.16;100.00
55289;BME280;41154;45.394;5.734;2023-03-03T06:30:01;97127.81;;;-0.08;100.00
55289;BME280;41154;45.394;5.734;2023-03-03T06:32:27;97134.00;;;-0.01;100.00
55289;BME280;41154;45.394;5.734;2023-03-03T06:34:52;97134.94;;;0.07;100.00
55289;BME280;41154;45.394;5.734;2023-03-03T06:37:18;97139.50;;;0.13;100.00
55289;BME280;41154;45.394;5.734;2023-03-03T06:39:44;97137.13;;;0.18;100.00
55289;BME280;41154;45.394;5.734;2023-03-03T06:42:11;97142.75;;;0.15;100.00
55289;BME280;41154;45.394;5.734;2023-03-03T06:44:36;97141.47;;;0.11;100.00
55289;BME280;41154;45.394;5.734;2023-03-03T06:47:03;97145.38;;;0.15;100.00
55289;BME280;41154;45.394;5.734;2023-03-03T06:49:30;97144.47;;;0.08;100.00
55289;BME280;41154;45.394;5.734;2023-03-03T06:51:58;97150.41;;;0.10;100.00
55289;BME280;41154;45.394;5.734;2023-03-03T06:54:27;97150.94;;;0.20;100.00
55289;BME280;41154;45.394;5.734;2023-03-03T06:56:57;97158.13;;;0.26;100.00
55289;BME280;41154;45.394;5.734;2023-03-03T06:59:26;97149.78;;;0.38;100.00
55289;BME280;41154;45.394;5.734;2023-03-03T07:01:58;97152.44;;;0.38;100.00
55289;BME280;41154;45.394;5.734;2023-03-03T07:04:28;97154.78;;;0.32;100.00
55289;BME280;41154;45.394;5.734;2023-03-03T07:06:56;97150.31;;;0.48;100.00
55289;BME280;41154;45.394;5.734;2023-03-03T07:09:30;97156.41;;;0.33;100.00
55289;BME280;41154;45.394;5.734;2023-03-03T07:12:00;97155.13;;;0.29;100.00
55289;BME280;41154;45.394;5.734;2023-03-03T07:14:28;97159.97;;;0.41;100.00
55289;BME280;41154;45.394;5.734;2023-03-03T07:17:03;97161.72;;;0.48;100.00
55289;BME280;41154;45.394;5.734;2023-03-03T07:19:32;97167.53;;;0.44;100.00
55289;BME280;41154;45.394;5.734;2023-03-03T07:22:00;97164.16;;;0.50;100.00
55289;BME280;41154;45.394;5.734;2023-03-03T07:24:36;97165.63;;;0.67;100.00
55289;BME280;41154;45.394;5.734;2023-03-03T07:29:30;97162.88;;;0.76;100.00
55289;BME280;41154;45.394;5.734;2023-03-03T07:32:00;97155.06;;;0.67;100.00
55289;BME280;41154;45.394;5.734;2023-03-03T07:37:12;97154.47;;;0.87;100.00
55289;BME280;41154;45.394;5.734;2023-03-03T07:39:43;97158.56;;;1.04;100.00
55289;BME280;41154;45.394;5.734;2023-03-03T07:42:26;97163.63;;;1.06;100.00
55289;BME280;41154;45.394;5.734;2023-03-03T07:45:01;97167.56;;;1.10;100.00
55289;BME280;41154;45.394;5.734;2023-03-03T07:47:30;97173.28;;;1.50;100.00
55289;BME280;41154;45.394;5.734;2023-03-03T07:49:59;97169.75;;;1.43;100.00
55289;BME280;41154;45.394;5.734;2023-03-03T07:52:28;97169.00;;;1.71;100.00
55289;BME280;41154;45.394;5.734;2023-03-03T07:54:58;97178.25;;;1.82;100.00
55289;BME280;41154;45.394;5.734;2023-03-03T07:57:36;97167.50;;;2.11;100.00
55289;BME280;41154;45.394;5.734;2023-03-03T08:02:44;97171.88;;;2.26;100.00
55289;BME280;41154;45.394;5.734;2023-03-03T08:05:35;97171.31;;;2.59;100.00
55289;BME280;41154;45.394;5.734;2023-03-03T08:13:12;97177.94;;;3.38;100.00
55289;BME280;41154;45.394;5.734;2023-03-03T08:15:41;97180.47;;;3.73;100.00
55289;BME280;41154;45.394;5.734;2023-03-03T08:18:20;97180.97;;;3.28;100.00
55289;BME280;41154;45.394;5.734;2023-03-03T08:20:54;97179.63;;;3.52;100.00
55289;BME280;41154;45.394;5.734;2023-03-03T08:23:21;97184.09;;;3.38;100.00
55289;BME280;41154;45.394;5.734;2023-03-03T08:25:48;97191.75;;;3.20;100.00
55289;BME280;41154;45.394;5.734;2023-03-03T08:28:14;97195.50;;;3.39;100.00
55289;BME280;41154;45.394;5.734;2023-03-03T08:30:43;97191.13;;;3.18;100.00
55289;BME280;41154;45.394;5.734;2023-03-03T08:33:09;97196.59;;;3.03;100.00
55289;BME280;41154;45.394;5.734;2023-03-03T08:35:34;97201.34;;;3.21;100.00
55289;BME280;41154;45.394;5.734;2023-03-03T08:38:01;97206.09;;;3.32;100.00
55289;BME280;41154;45.394;5.734;2023-03-03T08:40:27;97203.97;;;3.21;100.00
55289;BME280;41154;45.394;5.734;2023-03-03T08:42:52;97200.63;;;2.99;100.00
55289;BME280;41154;45.394;5.734;2023-03-03T08:45:19;97205.84;;;3.27;100.00
55289;BME280;41154;45.394;5.734;2023-03-03T08:47:46;97199.25;;;3.03;100.00
55289;BME280;41154;45.394;5.734;2023-03-03T08:50:12;97201.50;;;3.06;100.00
55289;BME280;41154;45.394;5.734;2023-03-03T08:52:40;97203.25;;;2.92;100.00
55289;BME280;41154;45.394;5.734;2023-03-03T08:55:05;97207.19;;;2.68;100.00
55289;BME280;41154;45.394;5.734;2023-03-03T08:57:31;97202.00;;;2.53;100.00
55289;BME280;41154;45.394;5.734;2023-03-03T08:59:57;97200.91;;;3.17;100.00
55289;BME280;41154;45.394;5.734;2023-03-03T09:02:23;97212.38;;;3.24;100.00
55289;BME280;41154;45.394;5.734;2023-03-03T09:04:49;97210.88;;;2.67;100.00
55289;BME280;41154;45.394;5.734;2023-03-03T09:07:14;97203.78;;;3.22;100.00
55289;BME280;41154;45.394;5.734;2023-03-03T09:09:40;97210.75;;;3.30;100.00
55289;BME280;41154;45.394;5.734;2023-03-03T09:14:39;97209.34;;;3.28;100.00
55289;BME280;41154;45.394;5.734;2023-03-03T09:17:22;97209.16;;;3.36;100.00
55289;BME280;41154;45.394;5.734;2023-03-03T09:19:49;97214.06;;;3.39;100.00
55289;BME280;41154;45.394;5.734;2023-03-03T09:22:23;97212.69;;;3.56;100.00
55289;BME280;41154;45.394;5.734;2023-03-03T09:24:52;97214.22;;;2.82;100.00
55289;BME280;41154;45.394;5.734;2023-03-03T09:27:29;97208.53;;;2.85;100.00
55289;BME280;41154;45.394;5.734;2023-03-03T09:30:26;97219.34;;;2.91;100.00
55289;BME280;41154;45.394;5.734;2023-03-03T09:32:57;97215.13;;;2.96;100.00
55289;BME280;41154;45.394;5.734;2023-03-03T09:37:53;97220.34;;;2.90;100.00
55289;BME280;41154;45.394;5.734;2023-03-03T09:40:54;97216.53;;;2.64;100.00
55289;BME280;41154;45.394;5.734;2023-03-03T09:46:38;97214.28;;;2.96;100.00
55289;BME280;41154;45.394;5.734;2023-03-03T09:57:13;97223.56;;;3.13;100.00
55289;BME280;41154;45.394;5.734;2023-03-03T10:00:03;97221.63;;;3.42;100.00
55289;BME280;41154;45.394;5.734;2023-03-03T10:05:48;97215.38;;;3.63;100.00
55289;BME280;41154;45.394;5.734;2023-03-03T10:11:10;97223.13;;;3.65;100.00
55289;BME280;41154;45.394;5.734;2023-03-03T10:14:07;97229.84;;;3.74;100.00
55289;BME280;41154;45.394;5.734;2023-03-03T10:22:19;97210.44;;;5.00;100.00
55289;BME280;41154;45.394;5.734;2023-03-03T10:25:02;97219.09;;;4.62;100.00
55289;BME280;41154;45.394;5.734;2023-03-03T10:41:38;97225.03;;;4.64;100.00
55289;BME280;41154;45.394;5.734;2023-03-03T10:44:22;97229.66;;;4.89;100.00
55289;BME280;41154;45.394;5.734;2023-03-03T10:46:58;97221.59;;;5.22;100.00
55289;BME280;41154;45.394;5.734;2023-03-03T10:49:47;97221.53;;;4.77;100.00
55289;BME280;41154;45.394;5.734;2023-03-03T10:55:30;97218.44;;;5.46;100.00
55289;BME280;41154;45.394;5.734;2023-03-03T10:58:03;97233.84;;;5.30;100.00
55289;BME280;41154;45.394;5.734;2023-03-03T11:06:48;97224.94;;;6.27;100.00
55289;BME280;41154;45.394;5.734;2023-03-03T11:09:33;97221.25;;;6.28;100.00
55289;BME280;41154;45.394;5.734;2023-03-03T11:15:02;97219.91;;;6.44;100.00
55289;BME280;41154;45.394;5.734;2023-03-03T11:18:14;97217.41;;;5.85;100.00
55289;BME280;41154;45.394;5.734;2023-03-03T11:23:38;97218.59;;;6.28;100.00
55289;BME280;41154;45.394;5.734;2023-03-03T11:32:15;97215.41;;;6.63;100.00
55289;BME280;41154;45.394;5.734;2023-03-03T11:34:36;97209.63;;;5.84;100.00
55289;BME280;41154;45.394;5.734;2023-03-03T11:37:08;97204.78;;;6.13;100.00
55289;BME280;41154;45.394;5.734;2023-03-03T11:39:37;97200.81;;;6.47;100.00
55289;BME280;41154;45.394;5.734;2023-03-03T11:42:14;97196.00;;;6.56;100.00
55289;BME280;41154;45.394;5.734;2023-03-03T11:44:59;97194.84;;;7.26;100.00
55289;BME280;41154;45.394;5.734;2023-03-03T11:47:40;97194.19;;;7.12;100.00
55289;BME280;41154;45.394;5.734;2023-03-03T11:50:17;97198.41;;;7.38;100.00
55289;BME280;41154;45.394;5.734;2023-03-03T11:55:30;97199.16;;;6.90;100.00
55289;BME280;41154;45.394;5.734;2023-03-03T12:06:38;97185.19;;;6.51;100.00
55289;BME280;41154;45.394;5.734;2023-03-03T12:12:06;97189.47;;;7.32;100.00
55289;BME280;41154;45.394;5.734;2023-03-03T12:15:05;97181.84;;;7.78;100.00
55289;BME280;41154;45.394;5.734;2023-03-03T12:22:56;97181.97;;;7.83;100.00
55289;BME280;41154;45.394;5.734;2023-03-03T12:25:31;97179.03;;;7.43;100.00
55289;BME280;41154;45.394;5.734;2023-03-03T12:33:58;97175.13;;;7.45;100.00
55289;BME280;41154;45.394;5.734;2023-03-03T12:42:19;97169.38;;;6.93;100.00
55289;BME280;41154;45.394;5.734;2023-03-03T12:45:17;97178.13;;;7.18;100.00
55289;BME280;41154;45.394;5.734;2023-03-03T12:47:50;97171.81;;;7.62;100.00
55289;BME280;41154;45.394;5.734;2023-03-03T12:56:03;97162.72;;;7.02;100.00
55289;BME280;41154;45.394;5.734;2023-03-03T12:58:55;97169.16;;;6.32;100.00
55289;BME280;41154;45.394;5.734;2023-03-03T13:10:16;97158.28;;;6.34;100.00
55289;BME280;41154;45.394;5.734;2023-03-03T13:15:34;97161.25;;;7.06;100.00
55289;BME280;41154;45.394;5.734;2023-03-03T13:23:09;97161.94;;;7.32;100.00
55289;BME280;41154;45.394;5.734;2023-03-03T13:25:50;97160.34;;;7.12;100.00
55289;BME280;41154;45.394;5.734;2023-03-03T13:31:33;97163.81;;;6.94;100.00
55289;BME280;41154;45.394;5.734;2023-03-03T13:34:01;97161.81;;;6.90;100.00
55289;BME280;41154;45.394;5.734;2023-03-03T13:36:41;97157.59;;;7.49;100.00
55289;BME280;41154;45.394;5.734;2023-03-03T13:39:32;97164.13;;;7.53;100.00
55289;BME280;41154;45.394;5.734;2023-03-03T13:44:49;97158.72;;;7.72;100.00
55289;BME280;41154;45.394;5.734;2023-03-03T13:52:24;97156.44;;;7.45;100.00
55289;BME280;41154;45.394;5.734;2023-03-03T13:55:28;97157.34;;;7.39;100.00
55289;BME280;41154;45.394;5.734;2023-03-03T14:06:04;97154.00;;;7.44;100.00
55289;BME280;41154;45.394;5.734;2023-03-03T14:08:46;97147.25;;;6.92;100.00
55289;BME280;41154;45.394;5.734;2023-03-03T14:19:46;97147.72;;;7.80;100.00
55289;BME280;41154;45.394;5.734;2023-03-03T14:25:12;97148.06;;;7.72;100.00
55289;BME280;41154;45.394;5.734;2023-03-03T14:35:42;97150.44;;;7.92;100.00
55289;BME280;41154;45.394;5.734;2023-03-03T14:38:15;97143.53;;;7.42;100.00
55289;BME280;41154;45.394;5.734;2023-03-03T14:40:44;97147.81;;;7.73;100.00
55289;BME280;41154;45.394;5.734;2023-03-03T14:43:26;97138.25;;;7.24;100.00
55289;BME280;41154;45.394;5.734;2023-03-03T14:48:50;97148.44;;;7.45;100.00
55289;BME280;41154;45.394;5.734;2023-03-03T14:51:26;97144.13;;;7.44;100.00
55289;BME280;41154;45.394;5.734;2023-03-03T14:53:54;97142.69;;;7.11;100.00
55289;BME280;41154;45.394;5.734;2023-03-03T14:56:35;97135.94;;;7.09;100.00
55289;BME280;41154;45.394;5.734;2023-03-03T14:59:22;97137.50;;;6.42;100.00
55289;BME280;41154;45.394;5.734;2023-03-03T15:04:46;97126.78;;;7.05;100.00
55289;BME280;41154;45.394;5.734;2023-03-03T15:07:34;97130.00;;;7.25;100.00
55289;BME280;41154;45.394;5.734;2023-03-03T15:10:00;97132.25;;;7.10;100.00
55289;BME280;41154;45.394;5.734;2023-03-03T15:12:36;97126.75;;;7.23;100.00
55289;BME280;41154;45.394;5.734;2023-03-03T15:17:43;97127.69;;;6.98;100.00
55289;BME280;41154;45.394;5.734;2023-03-03T15:23:55;97129.50;;;7.16;100.00
55289;BME280;41154;45.394;5.734;2023-03-03T15:30:00;97125.38;;;6.65;100.00
55289;BME280;41154;45.394;5.734;2023-03-03T15:35:42;97125.91;;;6.92;100.00
55289;BME280;41154;45.394;5.734;2023-03-03T15:41:23;97128.66;;;6.67;100.00
55289;BME280;41154;45.394;5.734;2023-03-03T15:52:37;97136.47;;;6.43;100.00
55289;BME280;41154;45.394;5.734;2023-03-03T16:03:36;97141.94;;;6.30;100.00
55289;BME280;41154;45.394;5.734;2023-03-03T16:06:28;97139.69;;;6.27;100.00
55289;BME280;41154;45.394;5.734;2023-03-03T16:09:59;97137.84;;;6.02;100.00
55289;BME280;41154;45.394;5.734;2023-03-03T16:12:13;97140.06;;;5.80;100.00
55289;BME280;41154;45.394;5.734;2023-03-03T16:20:21;97144.38;;;5.74;100.00
55289;BME280;41154;45.394;5.734;2023-03-03T16:26:12;97145.75;;;5.84;100.00
55289;BME280;41154;45.394;5.734;2023-03-03T16:28:57;97152.84;;;5.97;100.00
55289;BME280;41154;45.394;5.734;2023-03-03T16:31:45;97158.84;;;5.85;100.00
55289;BME280;41154;45.394;5.734;2023-03-03T16:34:23;97158.91;;;5.79;100.00
55289;BME280;41154;45.394;5.734;2023-03-03T16:39:25;97158.47;;;5.82;100.00
55289;BME280;41154;45.394;5.734;2023-03-03T16:42:22;97171.69;;;5.63;100.00
55289;BME280;41154;45.394;5.734;2023-03-03T16:44:59;97172.91;;;5.61;100.00
55289;BME280;41154;45.394;5.734;2023-03-03T16:50:25;97175.38;;;5.62;100.00
55289;BME280;41154;45.394;5.734;2023-03-03T16:58:31;97191.41;;;5.49;100.00
55289;BME280;41154;45.394;5.734;2023-03-03T17:06:30;97189.81;;;5.41;100.00
55289;BME280;41154;45.394;5.734;2023-03-03T17:09:26;97196.59;;;5.37;100.00
55289;BME280;41154;45.394;5.734;2023-03-03T17:20:31;97204.44;;;5.25;100.00
55289;BME280;41154;45.394;5.734;2023-03-03T17:23:33;97211.19;;;5.21;100.00
55289;BME280;41154;45.394;5.734;2023-03-03T17:26:42;97216.91;;;5.18;100.00
55289;BME280;41154;45.394;5.734;2023-03-03T17:47:04;97237.91;;;5.39;100.00
55289;BME280;41154;45.394;5.734;2023-03-03T18:06:12;97267.00;;;5.28;100.00
55289;BME280;41154;45.394;5.734;2023-03-03T18:17:41;97283.25;;;4.93;100.00
55289;BME280;41154;45.394;5.734;2023-03-03T18:25:57;97286.09;;;5.11;100.00
55289;BME280;41154;45.394;5.734;2023-03-03T18:28:44;97297.34;;;5.00;100.00
55289;BME280;41154;45.394;5.734;2023-03-03T18:31:23;97289.31;;;5.20;100.00